Time,TemperatureF,DewpointF,PressureIn,WindDirection,WindDirectionDegrees,WindSpeedMPH,WindSpeedGustMPH,Humidity,HourlyPrecipIn,Conditions,Clouds,dailyrainin,SoftwareType,DateUTC
2013-03-21 00:02:00,33.0,29.0,-100.00,South,180,2.0,8.0,83,-99.99,,,-99.99,,2013-03-21 06:02:00,
2013-03-21 00:12:00,35.0,28.0,-100.00,SW,225,3.0,10.0,77,-99.99,,,-99.99,,2013-03-21 06:12:00,
2013-03-21 00:22:00,35.0,28.0,-100.00,SW,225,3.0,10.0,77,-99.99,,,-99.99,,2013-03-21 06:22:00,
2013-03-21 00:32:00,35.0,28.0,-100.00,SW,225,3.0,10.0,77,-99.99,,,-99.99,,2013-03-21 06:32:00,
2013-03-21 00:42:00,38.0,25.0,-100.00,SW,236,6.0,20.0,59,-99.99,,,-99.99,,2013-03-21 06:42:00,
2013-03-21 00:52:00,38.0,25.0,-100.00,SW,236,6.0,20.0,59,-99.99,,,-99.99,,2013-03-21 06:52:00,
2013-03-21 01:02:00,37.0,26.0,-100.00,WSW,258,4.0,16.0,62,-99.99,,,-99.99,,2013-03-21 07:02:00,
2013-03-21 01:12:00,35.0,28.0,-100.00,NNW,346,4.0,7.0,75,-99.99,,,-99.99,,2013-03-21 07:12:00,
2013-03-21 01:22:00,35.0,28.0,-100.00,NNW,346,4.0,7.0,75,-99.99,,,-99.99,,2013-03-21 07:22:00,
2013-03-21 01:32:00,35.0,28.0,-100.00,NNW,346,4.0,7.0,75,-99.99,,,-99.99,,2013-03-21 07:32:00,
2013-03-21 01:42:00,35.0,26.0,-100.00,West,281,3.0,11.0,70,-99.99,,,-99.99,,2013-03-21 07:42:00,
2013-03-21 01:52:00,35.0,26.0,-100.00,West,281,3.0,11.0,70,-99.99,,,-99.99,,2013-03-21 07:52:00,
2013-03-21 02:02:00,37.0,24.0,-100.00,WSW,253,4.0,11.0,59,-99.99,,,-99.99,,2013-03-21 08:02:00,
2013-03-21 02:12:00,38.0,23.0,-100.00,WSW,248,6.0,17.0,54,-99.99,,,-99.99,,2013-03-21 08:12:00,
2013-03-21 02:22:00,38.0,23.0,-100.00,WSW,248,6.0,17.0,54,-99.99,,,-99.99,,2013-03-21 08:22:00,
2013-03-21 02:32:00,38.0,23.0,-100.00,WSW,248,6.0,17.0,54,-99.99,,,-99.99,,2013-03-21 08:32:00,
2013-03-21 02:42:00,38.0,22.0,-100.00,SW,220,6.0,21.0,52,-99.99,,,-99.99,,2013-03-21 08:42:00,
2013-03-21 02:52:00,38.0,22.0,-100.00,SW,220,6.0,21.0,52,-99.99,,,-99.99,,2013-03-21 08:52:00,
2013-03-21 03:02:00,38.0,22.0,-100.00,SW,220,7.0,21.0,51,-99.99,,,-99.99,,2013-03-21 09:02:00,
2013-03-21 03:11:00,38.0,21.0,-100.00,SSW,192,5.0,18.0,50,-99.99,,,-99.99,,2013-03-21 09:11:00,
2013-03-21 03:21:00,38.0,21.0,-100.00,SSW,192,5.0,18.0,50,-99.99,,,-99.99,,2013-03-21 09:21:00,
2013-03-21 03:33:00,38.0,21.0,-100.00,SSW,192,5.0,18.0,50,-99.99,,,-99.99,,2013-03-21 09:33:00,
2013-03-21 03:43:00,37.0,22.0,-100.00,SW,220,8.0,22.0,53,-99.99,,,-99.99,,2013-03-21 09:43:00,
2013-03-21 03:53:00,37.0,22.0,-100.00,SW,220,8.0,22.0,53,-99.99,,,-99.99,,2013-03-21 09:53:00,
2013-03-21 04:02:00,37.0,23.0,-100.00,SW,216,9.0,25.0,55,-99.99,,,-99.99,,2013-03-21 10:02:00,
2013-03-21 04:12:00,36.0,25.0,-100.00,WNW,291,4.0,13.0,64,-99.99,,,-99.99,,2013-03-21 10:12:00,
2013-03-21 04:22:00,36.0,25.0,-100.00,WNW,291,4.0,13.0,64,-99.99,,,-99.99,,2013-03-21 10:22:00,
2013-03-21 04:32:00,36.0,25.0,-100.00,WNW,291,4.0,13.0,64,-99.99,,,-99.99,,2013-03-21 10:32:00,
2013-03-21 04:42:00,32.0,28.0,-100.00,WSW,257,6.0,21.0,84,-99.99,,,-99.99,,2013-03-21 10:42:00,
2013-03-21 04:53:00,32.0,28.0,-100.00,WSW,257,6.0,21.0,84,-99.99,,,-99.99,,2013-03-21 10:53:00,
2013-03-21 05:02:00,32.0,28.0,-100.00,WSW,238,6.0,18.0,83,-99.99,,,-99.99,,2013-03-21 11:02:00,
2013-03-21 05:12:00,31.0,27.0,-100.00,SW,222,4.0,22.0,85,-99.99,,,-99.99,,2013-03-21 11:12:00,
2013-03-21 05:22:00,31.0,27.0,-100.00,SW,222,4.0,22.0,85,-99.99,,,-99.99,,2013-03-21 11:22:00,
2013-03-21 05:32:00,31.0,27.0,-100.00,SW,222,4.0,22.0,85,-99.99,,,-99.99,,2013-03-21 11:32:00,
2013-03-21 05:42:00,32.0,24.0,-100.00,WSW,238,8.0,26.0,73,-99.99,,,-99.99,,2013-03-21 11:42:00,
2013-03-21 05:53:00,32.0,24.0,-100.00,WSW,238,8.0,26.0,73,-99.99,,,-99.99,,2013-03-21 11:53:00,
2013-03-21 06:02:00,31.0,25.0,-100.00,SW,236,5.0,14.0,80,-99.99,,,-99.99,,2013-03-21 12:02:00,
2013-03-21 06:12:00,31.0,26.0,-100.00,WSW,247,8.0,20.0,79,-99.99,,,-99.99,,2013-03-21 12:12:00,
2013-03-21 06:22:00,31.0,26.0,-100.00,WSW,247,8.0,20.0,79,-99.99,,,-99.99,,2013-03-21 12:22:00,
2013-03-21 06:32:00,31.0,26.0,-100.00,WSW,247,8.0,20.0,79,-99.99,,,-99.99,,2013-03-21 12:32:00,
2013-03-21 06:42:00,30.0,26.0,-100.00,West,262,5.0,18.0,84,-99.99,,,-99.99,,2013-03-21 12:42:00,
2013-03-21 06:53:00,30.0,26.0,-100.00,West,262,5.0,18.0,84,-99.99,,,-99.99,,2013-03-21 12:53:00,
2013-03-21 07:02:00,29.0,23.0,-100.00,WSW,244,14.0,27.0,77,-99.99,,,-99.99,,2013-03-21 13:02:00,
2013-03-21 07:12:00,27.0,22.0,-100.00,SW,226,11.0,29.0,80,-99.99,,,-99.99,,2013-03-21 13:12:00,
2013-03-21 07:22:00,27.0,22.0,-100.00,SW,226,11.0,29.0,80,-99.99,,,-99.99,,2013-03-21 13:22:00,
2013-03-21 07:32:00,27.0,22.0,-100.00,SW,226,11.0,29.0,80,-99.99,,,-99.99,,2013-03-21 13:32:00,
2013-03-21 07:42:00,23.0,20.0,-100.00,WSW,258,16.0,33.0,88,-99.99,,,-99.99,,2013-03-21 13:42:00,
2013-03-21 07:52:00,23.0,20.0,-100.00,WSW,258,16.0,33.0,88,-99.99,,,-99.99,,2013-03-21 13:52:00,
2013-03-21 08:02:00,22.0,19.0,-100.00,West,269,13.0,32.0,85,-99.99,,,-99.99,,2013-03-21 14:02:00,
2013-03-21 08:11:00,22.0,18.0,-100.00,West,267,10.0,26.0,85,-99.99,,,-99.99,,2013-03-21 14:11:00,
2013-03-21 08:21:00,22.0,18.0,-100.00,West,267,10.0,26.0,85,-99.99,,,-99.99,,2013-03-21 14:21:00,
2013-03-21 08:32:00,22.0,18.0,-100.00,West,267,10.0,26.0,85,-99.99,,,-99.99,,2013-03-21 14:32:00,
2013-03-21 08:42:00,21.0,18.0,-100.00,WSW,252,10.0,25.0,87,-99.99,,,-99.99,,2013-03-21 14:42:00,
2013-03-21 08:52:00,21.0,18.0,-100.00,WSW,252,10.0,25.0,87,-99.99,,,-99.99,,2013-03-21 14:52:00,
2013-03-21 09:03:00,22.0,16.0,-100.00,WSW,255,11.0,25.0,75,-99.99,,,-99.99,,2013-03-21 15:03:00,
2013-03-21 09:12:00,22.0,15.0,-100.00,West,271,15.0,36.0,74,-99.99,,,-99.99,,2013-03-21 15:12:00,
2013-03-21 09:22:00,22.0,15.0,-100.00,West,271,15.0,36.0,74,-99.99,,,-99.99,,2013-03-21 15:22:00,
2013-03-21 09:32:00,22.0,15.0,-100.00,West,271,15.0,36.0,74,-99.99,,,-99.99,,2013-03-21 15:32:00,
2013-03-21 09:42:00,22.0,14.0,-100.00,West,266,10.0,27.0,73,-99.99,,,-99.99,,2013-03-21 15:42:00,
2013-03-21 09:53:00,22.0,14.0,-100.00,West,266,10.0,27.0,73,-99.99,,,-99.99,,2013-03-21 15:53:00,
2013-03-21 10:03:00,22.0,15.0,-100.00,West,270,10.0,23.0,73,-99.99,,,-99.99,,2013-03-21 16:03:00,
2013-03-21 10:12:00,23.0,14.0,-100.00,West,261,9.0,21.0,67,-99.99,,,-99.99,,2013-03-21 16:12:00,
2013-03-21 10:22:00,23.0,14.0,-100.00,West,261,9.0,21.0,67,-99.99,,,-99.99,,2013-03-21 16:22:00,
2013-03-21 10:32:00,23.0,14.0,-100.00,West,261,9.0,21.0,67,-99.99,,,-99.99,,2013-03-21 16:32:00,
2013-03-21 10:42:00,23.0,13.0,-100.00,WSW,246,16.0,28.0,66,-99.99,,,-99.99,,2013-03-21 16:42:00,
2013-03-21 10:53:00,23.0,13.0,-100.00,WSW,246,16.0,28.0,66,-99.99,,,-99.99,,2013-03-21 16:53:00,
2013-03-21 11:02:00,22.0,14.0,-100.00,WSW,244,16.0,26.0,68,-99.99,,,-99.99,,2013-03-21 17:02:00,
2013-03-21 11:12:00,22.0,14.0,-100.00,WSW,249,10.0,22.0,70,-99.99,,,-99.99,,2013-03-21 17:12:00,
2013-03-21 11:23:00,22.0,14.0,-100.00,WSW,249,10.0,22.0,70,-99.99,,,-99.99,,2013-03-21 17:23:00,
2013-03-21 11:32:00,22.0,14.0,-100.00,WSW,249,10.0,22.0,70,-99.99,,,-99.99,,2013-03-21 17:32:00,
2013-03-21 11:42:00,23.0,14.0,-100.00,West,269,6.0,23.0,67,-99.99,,,-99.99,,2013-03-21 17:42:00,
2013-03-21 11:53:00,23.0,14.0,-100.00,West,269,6.0,23.0,67,-99.99,,,-99.99,,2013-03-21 17:53:00,
2013-03-21 12:02:00,22.0,10.0,-100.00,WSW,243,11.0,27.0,58,-99.99,,,-99.99,,2013-03-21 18:02:00,
2013-03-21 12:12:00,23.0,10.0,-100.00,WSW,240,9.0,25.0,56,-99.99,,,-99.99,,2013-03-21 18:12:00,
2013-03-21 12:22:00,23.0,10.0,-100.00,WSW,240,9.0,25.0,56,-99.99,,,-99.99,,2013-03-21 18:22:00,
2013-03-21 12:32:00,23.0,10.0,-100.00,WSW,240,9.0,25.0,56,-99.99,,,-99.99,,2013-03-21 18:32:00,
2013-03-21 12:42:00,24.0,8.0,-100.00,WSW,246,13.0,29.0,49,-99.99,,,-99.99,,2013-03-21 18:42:00,
2013-03-21 12:52:00,24.0,8.0,-100.00,WSW,246,13.0,29.0,49,-99.99,,,-99.99,,2013-03-21 18:52:00,
2013-03-21 13:02:00,24.0,8.0,-100.00,WSW,246,13.0,29.0,49,-99.99,,,-99.99,,2013-03-21 19:02:00,
2013-03-21 13:12:00,26.0,9.0,-100.00,SW,226,8.0,16.0,48,-99.99,,,-99.99,,2013-03-21 19:12:00,
2013-03-21 13:22:00,26.0,9.0,-100.00,SW,226,8.0,16.0,48,-99.99,,,-99.99,,2013-03-21 19:22:00,
2013-03-21 13:32:00,26.0,9.0,-100.00,SW,226,8.0,16.0,48,-99.99,,,-99.99,,2013-03-21 19:32:00,
2013-03-21 13:42:00,27.0,12.0,-100.00,SW,223,7.0,15.0,51,-99.99,,,-99.99,,2013-03-21 19:42:00,
2013-03-21 13:52:00,27.0,12.0,-100.00,SW,223,7.0,15.0,51,-99.99,,,-99.99,,2013-03-21 19:52:00,
2013-03-21 14:02:00,27.0,12.0,-100.00,SW,220,6.0,12.0,52,-99.99,,,-99.99,,2013-03-21 20:02:00,
2013-03-21 14:12:00,27.0,12.0,-100.00,SW,230,5.0,12.0,52,-99.99,,,-99.99,,2013-03-21 20:12:00,
2013-03-21 14:22:00,27.0,12.0,-100.00,SW,230,5.0,12.0,52,-99.99,,,-99.99,,2013-03-21 20:22:00,
2013-03-21 14:32:00,27.0,12.0,-100.00,SW,230,5.0,12.0,52,-99.99,,,-99.99,,2013-03-21 20:32:00,
2013-03-21 14:42:00,24.0,10.0,-100.00,NE,45,5.0,10.0,53,-99.99,,,-99.99,,2013-03-21 20:42:00,
2013-03-21 14:53:00,24.0,10.0,-100.00,NE,45,5.0,10.0,53,-99.99,,,-99.99,,2013-03-21 20:53:00,
2013-03-21 15:02:00,25.0,11.0,-100.00,East,82,5.0,12.0,55,-99.99,,,-99.99,,2013-03-21 21:02:00,
2013-03-21 15:12:00,25.0,11.0,-100.00,South,187,4.0,9.0,53,-99.99,,,-99.99,,2013-03-21 21:12:00,
2013-03-21 15:22:00,25.0,11.0,-100.00,South,187,4.0,9.0,53,-99.99,,,-99.99,,2013-03-21 21:22:00,
2013-03-21 15:32:00,25.0,11.0,-100.00,South,187,4.0,9.0,53,-99.99,,,-99.99,,2013-03-21 21:32:00,
2013-03-21 15:43:00,26.0,10.0,-100.00,WSW,250,6.0,16.0,49,-99.99,,,-99.99,,2013-03-21 21:43:00,
2013-03-21 15:53:00,26.0,10.0,-100.00,WSW,250,6.0,16.0,49,-99.99,,,-99.99,,2013-03-21 21:53:00,
2013-03-21 16:02:00,25.0,9.0,-100.00,WSW,241,6.0,17.0,49,-99.99,,,-99.99,,2013-03-21 22:02:00,
2013-03-21 16:12:00,25.0,8.0,-100.00,WSW,251,7.0,19.0,46,-99.99,,,-99.99,,2013-03-21 22:12:00,
2013-03-21 16:23:00,25.0,8.0,-100.00,WSW,251,7.0,19.0,46,-99.99,,,-99.99,,2013-03-21 22:23:00,
2013-03-21 16:33:00,25.0,8.0,-100.00,WSW,251,7.0,19.0,46,-99.99,,,-99.99,,2013-03-21 22:33:00,
2013-03-21 16:42:00,26.0,5.0,-100.00,SW,234,10.0,19.0,40,-99.99,,,-99.99,,2013-03-21 22:42:00,
2013-03-21 16:52:00,26.0,5.0,-100.00,SW,234,10.0,19.0,40,-99.99,,,-99.99,,2013-03-21 22:52:00,
2013-03-21 17:02:00,26.0,4.0,-100.00,WSW,250,6.0,15.0,37,-99.99,,,-99.99,,2013-03-21 23:02:00,
2013-03-21 17:12:00,27.0,5.0,-100.00,SSW,213,6.0,13.0,37,-99.99,,,-99.99,,2013-03-21 23:12:00,
2013-03-21 17:21:00,27.0,5.0,-100.00,SSW,213,6.0,13.0,37,-99.99,,,-99.99,,2013-03-21 23:21:00,
2013-03-21 17:32:00,27.0,5.0,-100.00,SSW,213,6.0,13.0,37,-99.99,,,-99.99,,2013-03-21 23:32:00,
2013-03-21 17:42:00,27.0,1.0,-100.00,West,267,7.0,20.0,32,-99.99,,,-99.99,,2013-03-21 23:42:00,
2013-03-21 17:53:00,27.0,1.0,-100.00,West,267,7.0,20.0,32,-99.99,,,-99.99,,2013-03-21 23:53:00,
2013-03-21 18:02:00,26.0,1.0,-100.00,WNW,288,6.0,17.0,32,-99.99,,,-99.99,,2013-03-22 00:02:00,
2013-03-21 18:12:00,25.0,2.0,-100.00,West,280,6.0,19.0,36,-99.99,,,-99.99,,2013-03-22 00:12:00,
2013-03-21 18:22:00,25.0,2.0,-100.00,West,280,6.0,19.0,36,-99.99,,,-99.99,,2013-03-22 00:22:00,
2013-03-21 18:31:00,25.0,2.0,-100.00,West,280,6.0,19.0,36,-99.99,,,-99.99,,2013-03-22 00:31:00,
2013-03-21 18:42:00,25.0,1.0,-100.00,West,267,6.0,17.0,34,-99.99,,,-99.99,,2013-03-22 00:42:00,
2013-03-21 18:52:00,25.0,1.0,-100.00,West,267,6.0,17.0,34,-99.99,,,-99.99,,2013-03-22 00:52:00,
2013-03-21 19:02:00,26.0,0.0,-100.00,NW,307,4.0,12.0,32,-99.99,,,-99.99,,2013-03-22 01:02:00,
2013-03-21 19:12:00,25.0,1.0,-100.00,NW,321,3.0,11.0,35,-99.99,,,-99.99,,2013-03-22 01:12:00,
2013-03-21 19:22:00,25.0,1.0,-100.00,NW,321,3.0,11.0,35,-99.99,,,-99.99,,2013-03-22 01:22:00,
2013-03-21 19:32:00,25.0,1.0,-100.00,NW,321,3.0,11.0,35,-99.99,,,-99.99,,2013-03-22 01:32:00,
2013-03-21 19:42:00,22.0,3.0,-100.00,NNW,335,3.0,9.0,43,-99.99,,,-99.99,,2013-03-22 01:42:00,
2013-03-21 19:53:00,22.0,3.0,-100.00,NNW,335,3.0,9.0,43,-99.99,,,-99.99,,2013-03-22 01:53:00,
2013-03-21 20:02:00,21.0,3.0,-100.00,WSW,244,3.0,10.0,45,-99.99,,,-99.99,,2013-03-22 02:02:00,
2013-03-21 20:12:00,21.0,3.0,-100.00,NNW,333,4.0,9.0,46,-99.99,,,-99.99,,2013-03-22 02:12:00,
2013-03-21 20:22:00,21.0,3.0,-100.00,NNW,333,4.0,9.0,46,-99.99,,,-99.99,,2013-03-22 02:22:00,
2013-03-21 20:32:00,21.0,3.0,-100.00,NNW,333,4.0,9.0,46,-99.99,,,-99.99,,2013-03-22 02:32:00,
2013-03-21 20:42:00,20.0,4.0,-100.00,East,96,3.0,5.0,48,-99.99,,,-99.99,,2013-03-22 02:42:00,
2013-03-21 20:52:00,20.0,4.0,-100.00,East,96,3.0,5.0,48,-99.99,,,-99.99,,2013-03-22 02:52:00,
2013-03-21 21:02:00,20.0,5.0,-100.00,ENE,74,3.0,5.0,51,-99.99,,,-99.99,,2013-03-22 03:02:00,
2013-03-21 21:12:00,20.0,6.0,-100.00,ENE,72,1.0,2.0,53,-99.99,,,-99.99,,2013-03-22 03:12:00,
2013-03-21 21:21:00,20.0,6.0,-100.00,ENE,72,1.0,2.0,53,-99.99,,,-99.99,,2013-03-22 03:21:00,
2013-03-21 21:33:00,20.0,6.0,-100.00,ENE,72,1.0,2.0,53,-99.99,,,-99.99,,2013-03-22 03:33:00,
2013-03-21 21:42:00,20.0,0.0,-100.00,WSW,254,3.0,7.0,41,-99.99,,,-99.99,,2013-03-22 03:42:00,
2013-03-21 21:53:00,20.0,0.0,-100.00,WSW,254,3.0,7.0,41,-99.99,,,-99.99,,2013-03-22 03:53:00,
2013-03-21 22:03:00,21.0,-1.0,-100.00,West,267,3.0,8.0,38,-99.99,,,-99.99,,2013-03-22 04:03:00,
2013-03-21 22:12:00,20.0,0.0,-100.00,West,277,1.0,5.0,39,-99.99,,,-99.99,,2013-03-22 04:12:00,
2013-03-21 22:22:00,20.0,0.0,-100.00,West,277,1.0,5.0,39,-99.99,,,-99.99,,2013-03-22 04:22:00,
2013-03-21 22:32:00,20.0,0.0,-100.00,West,277,1.0,5.0,39,-99.99,,,-99.99,,2013-03-22 04:32:00,
2013-03-21 22:42:00,20.0,1.0,-100.00,ESE,112,1.0,3.0,42,-99.99,,,-99.99,,2013-03-22 04:42:00,
2013-03-21 22:52:00,20.0,1.0,-100.00,ESE,112,1.0,3.0,42,-99.99,,,-99.99,,2013-03-22 04:52:00,
2013-03-21 23:02:00,20.0,0.0,-100.00,NE,34,1.0,2.0,41,-99.99,,,-99.99,,2013-03-22 05:02:00,
2013-03-21 23:12:00,20.0,1.0,-100.00,East,94,1.0,2.0,43,-99.99,,,-99.99,,2013-03-22 05:12:00,
2013-03-21 23:22:00,20.0,1.0,-100.00,East,94,1.0,2.0,43,-99.99,,,-99.99,,2013-03-22 05:22:00,
2013-03-21 23:32:00,20.0,1.0,-100.00,East,94,1.0,2.0,43,-99.99,,,-99.99,,2013-03-22 05:32:00,
2013-03-21 23:42:00,19.0,3.0,-100.00,NNE,26,1.0,2.0,47,-99.99,,,-99.99,,2013-03-22 05:42:00,
2013-03-21 23:52:00,19.0,3.0,-100.00,NNE,26,1.0,2.0,47,-99.99,,,-99.99,,2013-03-22 05:52:00,